sensor_id;sensor_type;location;lat;lon;timestamp;temperature;humidity
34572;DHT22;20808;48.974;8.452;2023-08-30T00:00:06;12.90;99.90
34572;DHT22;20808;48.974;8.452;2023-08-30T00:00:21;12.70;99.90
34572;DHT22;20808;48.974;8.452;2023-08-30T00:00:37;12.80;99.90
34572;DHT22;20808;48.974;8.452;2023-08-30T00:00:53;12.80;99.90
34572;DHT22;20808;48.974;8.452;2023-08-30T00:01:10;12.60;99.90
34572;DHT22;20808;48.974;8.452;2023-08-30T00:01:26;12.80;99.90
34572;DHT22;20808;48.974;8.452;2023-08-30T00:01:42;12.80;99.90
34572;DHT22;20808;48.974;8.452;2023-08-30T00:01:58;12.90;99.90
34572;DHT22;20808;48.974;8.452;2023-08-30T00:02:14;12.70;99.90
34572;DHT22;20808;48.974;8.452;2023-08-30T00:02:30;12.70;99.90
34572;DHT22;20808;48.974;8.452;2023-08-30T00:02:46;12.90;99.90
34572;DHT22;20808;48.974;8.452;2023-08-30T00:03:02;12.60;99.90
34572;DHT22;20808;48.974;8.452;2023-08-30T00:03:18;12.60;99.90
34572;DHT22;20808;48.974;8.452;2023-08-30T00:03:34;12.80;99.90
34572;DHT22;20808;48.974;8.452;2023-08-30T00:03:50;12.90;99.90
34572;DHT22;20808;48.974;8.452;2023-08-30T00:04:06;12.80;99.90
34572;DHT22;20808;48.974;8.452;2023-08-30T00:04:22;12.80;99.90
34572;DHT22;20808;48.974;8.452;2023-08-30T00:04:38;12.70;99.90
34572;DHT22;20808;48.974;8.452;2023-08-30T00:04:58;12.70;99.90
34572;DHT22;20808;48.974;8.452;2023-08-30T00:05:15;12.80;99.90
34572;DHT22;20808;48.974;8.452;2023-08-30T00:05:30;12.80;99.90
34572;DHT22;20808;48.974;8.452;2023-08-30T00:05:46;12.80;99.90
34572;DHT22;20808;48.974;8.452;2023-08-30T00:06:02;12.60;99.90
34572;DHT22;20808;48.974;8.452;2023-08-30T00:06:19;12.90;99.90
34572;DHT22;20808;48.974;8.452;2023-08-30T00:06:35;12.70;99.90
34572;DHT22;20808;48.974;8.452;2023-08-30T00:06:50;12.70;99.90
34572;DHT22;20808;48.974;8.452;2023-08-30T00:07:06;12.60;99.90
34572;DHT22;20808;48.974;8.452;2023-08-30T00:07:22;12.80;99.90
34572;DHT22;20808;48.974;8.452;2023-08-30T00:07:40;13.00;99.90
34572;DHT22;20808;48.974;8.452;2023-08-30T00:07:55;12.80;99.90
34572;DHT22;20808;48.974;8.452;2023-08-30T00:08:11;12.60;99.90
34572;DHT22;20808;48.974;8.452;2023-08-30T00:08:28;12.60;99.90
34572;DHT22;20808;48.974;8.452;2023-08-30T00:08:44;13.00;99.90
34572;DHT22;20808;48.974;8.452;2023-08-30T00:09:00;12.80;99.90
34572;DHT22;20808;48.974;8.452;2023-08-30T00:09:16;12.90;99.90
34572;DHT22;20808;48.974;8.452;2023-08-30T00:09:33;13.10;99.90
34572;DHT22;20808;48.974;8.452;2023-08-30T00:09:51;12.90;99.90
34572;DHT22;20808;48.974;8.452;2023-08-30T00:10:07;13.00;99.90
34572;DHT22;20808;48.974;8.452;2023-08-30T00:10:25;13.00;99.90
34572;DHT22;20808;48.974;8.452;2023-08-30T00:10:41;12.90;99.90
34572;DHT22;20808;48.974;8.452;2023-08-30T00:10:58;13.00;99.90
34572;DHT22;20808;48.974;8.452;2023-08-30T00:11:14;13.20;99.90
34572;DHT22;20808;48.974;8.452;2023-08-30T00:11:30;13.00;99.90
34572;DHT22;20808;48.974;8.452;2023-08-30T00:11:47;12.80;99.90
34572;DHT22;20808;48.974;8.452;2023-08-30T00:12:04;12.90;99.90
34572;DHT22;20808;48.974;8.452;2023-08-30T00:12:20;12.90;99.90
34572;DHT22;20808;48.974;8.452;2023-08-30T00:12:37;12.70;99.90
34572;DHT22;20808;48.974;8.452;2023-08-30T00:12:52;12.80;99.90
34572;DHT22;20808;48.974;8.452;2023-08-30T00:13:08;12.80;99.90
34572;DHT22;20808;48.974;8.452;2023-08-30T00:13:24;13.00;99.90
34572;DHT22;20808;48.974;8.452;2023-08-30T00:13:41;12.80;99.90
34572;DHT22;20808;48.974;8.452;2023-08-30T00:14:03;12.90;99.90
34572;DHT22;20808;48.974;8.452;2023-08-30T00:14:21;13.10;99.90
34572;DHT22;20808;48.974;8.452;2023-08-30T00:14:36;13.20;99.90
34572;DHT22;20808;48.974;8.452;2023-08-30T00:14:52;12.90;99.90
34572;DHT22;20808;48.974;8.452;2023-08-30T00:15:09;12.90;99.90
34572;DHT22;20808;48.974;8.452;2023-08-30T00:15:25;13.00;99.90
34572;DHT22;20808;48.974;8.452;2023-08-30T00:15:41;12.80;99.90
34572;DHT22;20808;48.974;8.452;2023-08-30T00:15:56;13.00;99.90
34572;DHT22;20808;48.974;8.452;2023-08-30T00:16:12;12.90;99.90
34572;DHT22;20808;48.974;8.452;2023-08-30T00:16:28;12.90;99.90
34572;DHT22;20808;48.974;8.452;2023-08-30T00:16:45;13.20;99.90
34572;DHT22;20808;48.974;8.452;2023-08-30T00:17:01;12.90;99.90
34572;DHT22;20808;48.974;8.452;2023-08-30T00:17:17;12.90;99.90
34572;DHT22;20808;48.974;8.452;2023-08-30T00:17:33;13.10;99.90
34572;DHT22;20808;48.974;8.452;2023-08-30T00:17:49;12.70;99.90
34572;DHT22;20808;48.974;8.452;2023-08-30T00:18:07;12.90;99.90
34572;DHT22;20808;48.974;8.452;2023-08-30T00:18:22;12.70;99.90
34572;DHT22;20808;48.974;8.452;2023-08-30T00:18:39;13.00;99.90
34572;DHT22;20808;48.974;8.452;2023-08-30T00:18:55;12.80;99.90
34572;DHT22;20808;48.974;8.452;2023-08-30T00:19:11;13.10;99.90
34572;DHT22;20808;48.974;8.452;2023-08-30T00:19:27;13.00;99.90
34572;DHT22;20808;48.974;8.452;2023-08-30T00:19:42;12.70;99.90
34572;DHT22;20808;48.974;8.452;2023-08-30T00:19:58;12.80;99.90
34572;DHT22;20808;48.974;8.452;2023-08-30T00:20:15;12.60;99.90
34572;DHT22;20808;48.974;8.452;2023-08-30T00:20:31;12.80;99.90
34572;DHT22;20808;48.974;8.452;2023-08-30T00:20:47;13.00;99.90
34572;DHT22;20808;48.974;8.452;2023-08-30T00:21:03;13.20;99.90
34572;DHT22;20808;48.974;8.452;2023-08-30T00:21:18;12.90;99.90
34572;DHT22;20808;48.974;8.452;2023-08-30T00:21:34;12.80;99.90
34572;DHT22;20808;48.974;8.452;2023-08-30T00:21:50;13.00;99.90
34572;DHT22;20808;48.974;8.452;2023-08-30T00:22:07;12.90;99.90
34572;DHT22;20808;48.974;8.452;2023-08-30T00:22:22;12.70;99.90
34572;DHT22;20808;48.974;8.452;2023-08-30T00:22:39;12.70;99.90
34572;DHT22;20808;48.974;8.452;2023-08-30T00:22:55;12.80;99.90
34572;DHT22;20808;48.974;8.452;2023-08-30T00:23:10;12.70;99.90
34572;DHT22;20808;48.974;8.452;2023-08-30T00:23:26;12.70;99.90
34572;DHT22;20808;48.974;8.452;2023-08-30T00:23:42;12.90;99.90
34572;DHT22;20808;48.974;8.452;2023-08-30T00:23:59;12.90;99.90
34572;DHT22;20808;48.974;8.452;2023-08-30T00:24:14;12.90;99.90
34572;DHT22;20808;48.974;8.452;2023-08-30T00:24:30;12.60;99.90
34572;DHT22;20808;48.974;8.452;2023-08-30T00:24:47;12.80;99.90
34572;DHT22;20808;48.974;8.452;2023-08-30T00:25:04;12.60;99.90
34572;DHT22;20808;48.974;8.452;2023-08-30T00:25:20;12.60;99.90
34572;DHT22;20808;48.974;8.452;2023-08-30T00:25:35;12.60;99.90
34572;DHT22;20808;48.974;8.452;2023-08-30T00:25:51;12.60;99.90
34572;DHT22;20808;48.974;8.452;2023-08-30T00:26:08;13.00;99.90
34572;DHT22;20808;48.974;8.452;2023-08-30T00:26:24;12.80;99.90
34572;DHT22;20808;48.974;8.452;2023-08-30T00:26:41;12.60;99.90
34572;DHT22;20808;48.974;8.452;2023-08-30T00:26:56;12.70;99.90
34572;DHT22;20808;48.974;8.452;2023-08-30T00:27:12;12.60;99.90
34572;DHT22;20808;48.974;8.452;2023-08-30T00:27:28;12.70;99.90
34572;DHT22;20808;48.974;8.452;2023-08-30T00:27:44;12.70;99.90
34572;DHT22;20808;48.974;8.452;2023-08-30T00:27:59;12.70;99.90
34572;DHT22;20808;48.974;8.452;2023-08-30T00:28:16;12.80;99.90
34572;DHT22;20808;48.974;8.452;2023-08-30T00:28:32;12.90;99.90
34572;DHT22;20808;48.974;8.452;2023-08-30T00:28:47;12.50;99.90
34572;DHT22;20808;48.974;8.452;2023-08-30T00:29:03;12.50;99.90
34572;DHT22;20808;48.974;8.452;2023-08-30T00:29:19;12.70;99.90
34572;DHT22;20808;48.974;8.452;2023-08-30T00:29:35;12.60;99.90
34572;DHT22;20808;48.974;8.452;2023-08-30T00:29:50;12.90;99.90
34572;DHT22;20808;48.974;8.452;2023-08-30T00:30:08;12.40;99.90
34572;DHT22;20808;48.974;8.452;2023-08-30T00:30:24;12.60;99.90
34572;DHT22;20808;48.974;8.452;2023-08-30T00:30:40;12.40;99.90
34572;DHT22;20808;48.974;8.452;2023-08-30T00:30:56;12.50;99.90
34572;DHT22;20808;48.974;8.452;2023-08-30T00:31:11;12.70;99.90
34572;DHT22;20808;48.974;8.452;2023-08-30T00:31:27;12.40;99.90
34572;DHT22;20808;48.974;8.452;2023-08-30T00:31:43;12.60;99.90
34572;DHT22;20808;48.974;8.452;2023-08-30T00:32:00;12.50;99.90
34572;DHT22;20808;48.974;8.452;2023-08-30T00:32:15;12.50;99.90
34572;DHT22;20808;48.974;8.452;2023-08-30T00:32:31;12.30;99.90
34572;DHT22;20808;48.974;8.452;2023-08-30T00:32:47;12.60;99.90
34572;DHT22;20808;48.974;8.452;2023-08-30T00:33:03;12.30;99.90
34572;DHT22;20808;48.974;8.452;2023-08-30T00:33:19;12.30;99.90
34572;DHT22;20808;48.974;8.452;2023-08-30T00:33:36;12.40;99.90
34572;DHT22;20808;48.974;8.452;2023-08-30T00:33:53;12.50;99.90
34572;DHT22;20808;48.974;8.452;2023-08-30T00:34:08;12.50;99.90
34572;DHT22;20808;48.974;8.452;2023-08-30T00:34:24;12.50;99.90
34572;DHT22;20808;48.974;8.452;2023-08-30T00:34:40;12.50;99.90
34572;DHT22;20808;48.974;8.452;2023-08-30T00:34:56;12.40;99.90
34572;DHT22;20808;48.974;8.452;2023-08-30T00:35:11;12.50;99.90
34572;DHT22;20808;48.974;8.452;2023-08-30T00:35:27;12.30;99.90
34572;DHT22;20808;48.974;8.452;2023-08-30T00:35:44;12.30;99.90
34572;DHT22;20808;48.974;8.452;2023-08-30T00:36:00;12.30;99.90
34572;DHT22;20808;48.974;8.452;2023-08-30T00:36:16;12.40;99.90
34572;DHT22;20808;48.974;8.452;2023-08-30T00:36:32;12.40;99.90
34572;DHT22;20808;48.974;8.452;2023-08-30T00:36:48;12.60;99.90
34572;DHT22;20808;48.974;8.452;2023-08-30T00:37:04;12.40;99.90
34572;DHT22;20808;48.974;8.452;2023-08-30T00:37:20;12.50;99.90
34572;DHT22;20808;48.974;8.452;2023-08-30T00:37:36;12.40;99.90
34572;DHT22;20808;48.974;8.452;2023-08-30T00:37:52;12.40;99.90
34572;DHT22;20808;48.974;8.452;2023-08-30T00:38:08;12.50;99.90
34572;DHT22;20808;48.974;8.452;2023-08-30T00:38:25;12.20;99.90
34572;DHT22;20808;48.974;8.452;2023-08-30T00:38:41;12.50;99.90
34572;DHT22;20808;48.974;8.452;2023-08-30T00:38:57;12.40;99.90
34572;DHT22;20808;48.974;8.452;2023-08-30T00:39:12;12.30;99.90
34572;DHT22;20808;48.974;8.452;2023-08-30T00:39:29;12.30;99.90
34572;DHT22;20808;48.974;8.452;2023-08-30T00:39:46;12.30;99.90
34572;DHT22;20808;48.974;8.452;2023-08-30T00:40:02;12.50;99.90
34572;DHT22;20808;48.974;8.452;2023-08-30T00:40:23;12.40;99.90
34572;DHT22;20808;48.974;8.452;2023-08-30T00:40:39;12.30;99.90
34572;DHT22;20808;48.974;8.452;2023-08-30T00:40:55;12.30;99.90
34572;DHT22;20808;48.974;8.452;2023-08-30T00:41:12;12.20;99.90
34572;DHT22;20808;48.974;8.452;2023-08-30T00:41:27;12.40;99.90
34572;DHT22;20808;48.974;8.452;2023-08-30T00:41:43;12.30;99.90
34572;DHT22;20808;48.974;8.452;2023-08-30T00:41:59;12.20;99.90
34572;DHT22;20808;48.974;8.452;2023-08-30T00:42:20;12.30;99.90
34572;DHT22;20808;48.974;8.452;2023-08-30T00:42:36;12.20;99.90
34572;DHT22;20808;48.974;8.452;2023-08-30T00:42:53;12.20;99.90
34572;DHT22;20808;48.974;8.452;2023-08-30T00:43:09;12.40;99.90
34572;DHT22;20808;48.974;8.452;2023-08-30T00:43:24;12.10;99.90
34572;DHT22;20808;48.974;8.452;2023-08-30T00:43:40;12.00;99.90
34572;DHT22;20808;48.974;8.452;2023-08-30T00:43:56;12.00;99.90
34572;DHT22;20808;48.974;8.452;2023-08-30T00:44:12;12.40;99.90
34572;DHT22;20808;48.974;8.452;2023-08-30T00:44:27;12.40;99.90
34572;DHT22;20808;48.974;8.452;2023-08-30T00:44:43;12.50;99.90
34572;DHT22;20808;48.974;8.452;2023-08-30T00:45:00;12.30;99.90
34572;DHT22;20808;48.974;8.452;2023-08-30T00:45:16;12.20;99.90
34572;DHT22;20808;48.974;8.452;2023-08-30T00:45:32;12.30;99.90
34572;DHT22;20808;48.974;8.452;2023-08-30T00:45:49;12.30;99.90
34572;DHT22;20808;48.974;8.452;2023-08-30T00:46:05;12.30;99.90
34572;DHT22;20808;48.974;8.452;2023-08-30T00:46:20;12.20;99.90
34572;DHT22;20808;48.974;8.452;2023-08-30T00:46:37;12.40;99.90
34572;DHT22;20808;48.974;8.452;2023-08-30T00:46:54;12.40;99.90
34572;DHT22;20808;48.974;8.452;2023-08-30T00:47:10;12.30;99.90
34572;DHT22;20808;48.974;8.452;2023-08-30T00:47:26;12.10;99.90
34572;DHT22;20808;48.974;8.452;2023-08-30T00:47:42;12.40;99.90
34572;DHT22;20808;48.974;8.452;2023-08-30T00:47:58;12.20;99.90
34572;DHT22;20808;48.974;8.452;2023-08-30T00:48:14;12.20;99.90
34572;DHT22;20808;48.974;8.452;2023-08-30T00:48:31;12.30;99.90
34572;DHT22;20808;48.974;8.452;2023-08-30T00:48:47;12.30;99.90
34572;DHT22;20808;48.974;8.452;2023-08-30T00:49:04;12.30;99.90
34572;DHT22;20808;48.974;8.452;2023-08-30T00:49:20;12.00;99.90
34572;DHT22;20808;48.974;8.452;2023-08-30T00:49:35;12.20;99.90
34572;DHT22;20808;48.974;8.452;2023-08-30T00:49:52;12.30;99.90
34572;DHT22;20808;48.974;8.452;2023-08-30T00:50:09;12.30;99.90
34572;DHT22;20808;48.974;8.452;2023-08-30T00:50:25;12.40;99.90
34572;DHT22;20808;48.974;8.452;2023-08-30T00:50:41;12.30;99.90
34572;DHT22;20808;48.974;8.452;2023-08-30T00:50:57;12.20;99.90
34572;DHT22;20808;48.974;8.452;2023-08-30T00:51:13;12.30;99.90
34572;DHT22;20808;48.974;8.452;2023-08-30T00:51:30;12.50;99.90
34572;DHT22;20808;48.974;8.452;2023-08-30T00:51:46;12.00;99.90
34572;DHT22;20808;48.974;8.452;2023-08-30T00:52:05;12.30;99.90
34572;DHT22;20808;48.974;8.452;2023-08-30T00:52:22;12.30;99.90
34572;DHT22;20808;48.974;8.452;2023-08-30T00:52:37;12.40;99.90
34572;DHT22;20808;48.974;8.452;2023-08-30T00:52:54;12.40;99.90
34572;DHT22;20808;48.974;8.452;2023-08-30T00:53:10;12.10;99.90
34572;DHT22;20808;48.974;8.452;2023-08-30T00:53:27;12.20;99.90
34572;DHT22;20808;48.974;8.452;2023-08-30T00:53:44;12.10;99.90
34572;DHT22;20808;48.974;8.452;2023-08-30T00:54:00;12.30;99.90
34572;DHT22;20808;48.974;8.452;2023-08-30T00:54:16;12.00;99.90
34572;DHT22;20808;48.974;8.452;2023-08-30T00:54:32;12.50;99.90
34572;DHT22;20808;48.974;8.452;2023-08-30T00:54:49;12.10;99.90
34572;DHT22;20808;48.974;8.452;2023-08-30T00:55:06;12.50;99.90
34572;DHT22;20808;48.974;8.452;2023-08-30T00:55:23;12.50;99.90
34572;DHT22;20808;48.974;8.452;2023-08-30T00:55:41;12.40;99.90
34572;DHT22;20808;48.974;8.452;2023-08-30T00:55:57;12.30;99.90
34572;DHT22;20808;48.974;8.452;2023-08-30T00:56:13;12.40;99.90
34572;DHT22;20808;48.974;8.452;2023-08-30T00:56:29;12.10;99.90
34572;DHT22;20808;48.974;8.452;2023-08-30T00:56:45;12.10;99.90
34572;DHT22;20808;48.974;8.452;2023-08-30T00:57:02;12.30;99.90
34572;DHT22;20808;48.974;8.452;2023-08-30T00:57:21;12.30;99.90
34572;DHT22;20808;48.974;8.452;2023-08-30T00:57:37;12.10;99.90
34572;DHT22;20808;48.974;8.452;2023-08-30T00:57:52;12.30;99.90
34572;DHT22;20808;48.974;8.452;2023-08-30T00:58:09;12.40;99.90
34572;DHT22;20808;48.974;8.452;2023-08-30T00:58:26;12.20;99.90
34572;DHT22;20808;48.974;8.452;2023-08-30T00:58:43;12.20;99.90
34572;DHT22;20808;48.974;8.452;2023-08-30T00:58:59;12.30;99.90
34572;DHT22;20808;48.974;8.452;2023-08-30T00:59:15;12.10;99.90
34572;DHT22;20808;48.974;8.452;2023-08-30T00:59:32;12.30;99.90
34572;DHT22;20808;48.974;8.452;2023-08-30T00:59:49;12.20;99.90
34572;DHT22;20808;48.974;8.452;2023-08-30T01:00:07;12.30;99.90
34572;DHT22;20808;48.974;8.452;2023-08-30T01:00:24;12.30;99.90
34572;DHT22;20808;48.974;8.452;2023-08-30T01:00:40;12.20;99.90
34572;DHT22;20808;48.974;8.452;2023-08-30T01:00:57;12.20;99.90
34572;DHT22;20808;48.974;8.452;2023-08-30T01:01:14;12.40;99.90
34572;DHT22;20808;48.974;8.452;2023-08-30T01:01:31;12.00;99.90
34572;DHT22;20808;48.974;8.452;2023-08-30T01:01:47;12.20;99.90
34572;DHT22;20808;48.974;8.452;2023-08-30T01:02:04;12.30;99.90
34572;DHT22;20808;48.974;8.452;2023-08-30T01:02:20;12.30;99.90
34572;DHT22;20808;48.974;8.452;2023-08-30T01:02:37;12.50;99.90
34572;DHT22;20808;48.974;8.452;2023-08-30T01:02:53;12.30;99.90
34572;DHT22;20808;48.974;8.452;2023-08-30T01:03:08;12.20;99.90
34572;DHT22;20808;48.974;8.452;2023-08-30T01:03:24;12.40;99.90
34572;DHT22;20808;48.974;8.452;2023-08-30T01:03:40;12.50;99.90
34572;DHT22;20808;48.974;8.452;2023-08-30T01:03:56;12.40;99.90
34572;DHT22;20808;48.974;8.452;2023-08-30T01:04:12;12.40;99.90
34572;DHT22;20808;48.974;8.452;2023-08-30T01:04:28;12.50;99.90
34572;DHT22;20808;48.974;8.452;2023-08-30T01:04:45;12.30;99.90
34572;DHT22;20808;48.974;8.452;2023-08-30T01:05:02;12.20;99.90
34572;DHT22;20808;48.974;8.452;2023-08-30T01:05:17;12.60;99.90
34572;DHT22;20808;48.974;8.452;2023-08-30T01:05:33;12.20;99.90
34572;DHT22;20808;48.974;8.452;2023-08-30T01:05:49;12.40;99.90
34572;DHT22;20808;48.974;8.452;2023-08-30T01:06:06;12.40;99.90
34572;DHT22;20808;48.974;8.452;2023-08-30T01:06:21;12.30;99.90
34572;DHT22;20808;48.974;8.452;2023-08-30T01:06:37;12.30;99.90
34572;DHT22;20808;48.974;8.452;2023-08-30T01:06:53;12.50;99.90
34572;DHT22;20808;48.974;8.452;2023-08-30T01:07:09;12.20;99.90
34572;DHT22;20808;48.974;8.452;2023-08-30T01:07:24;12.40;99.90
34572;DHT22;20808;48.974;8.452;2023-08-30T01:07:43;12.20;99.90
34572;DHT22;20808;48.974;8.452;2023-08-30T01:07:59;12.30;99.90
34572;DHT22;20808;48.974;8.452;2023-08-30T01:08:15;12.20;99.90
34572;DHT22;20808;48.974;8.452;2023-08-30T01:08:31;12.20;99.90
34572;DHT22;20808;48.974;8.452;2023-08-30T01:08:47;12.30;99.90
34572;DHT22;20808;48.974;8.452;2023-08-30T01:09:03;12.20;99.90
34572;DHT22;20808;48.974;8.452;2023-08-30T01:09:20;12.30;99.90
34572;DHT22;20808;48.974;8.452;2023-08-30T01:09:36;12.40;99.90
34572;DHT22;20808;48.974;8.452;2023-08-30T01:09:53;12.30;99.90
34572;DHT22;20808;48.974;8.452;2023-08-30T01:10:10;12.40;99.90
34572;DHT22;20808;48.974;8.452;2023-08-30T01:10:33;12.10;99.90
34572;DHT22;20808;48.974;8.452;2023-08-30T01:10:57;12.20;99.90
34572;DHT22;20808;48.974;8.452;2023-08-30T01:11:20;12.20;99.90
34572;DHT22;20808;48.974;8.452;2023-08-30T01:11:51;12.10;99.90
34572;DHT22;20808;48.974;8.452;2023-08-30T01:12:12;12.20;99.90
34572;DHT22;20808;48.974;8.452;2023-08-30T01:12:37;12.40;99.90
34572;DHT22;20808;48.974;8.452;2023-08-30T01:12:59;12.30;99.90
34572;DHT22;20808;48.974;8.452;2023-08-30T01:13:18;12.40;99.90
34572;DHT22;20808;48.974;8.452;2023-08-30T01:13:40;12.40;99.90
34572;DHT22;20808;48.974;8.452;2023-08-30T01:14:01;12.20;99.90
34572;DHT22;20808;48.974;8.452;2023-08-30T01:14:21;12.40;99.90
34572;DHT22;20808;48.974;8.452;2023-08-30T01:14:40;12.20;99.90
34572;DHT22;20808;48.974;8.452;2023-08-30T01:15:02;12.20;99.90
34572;DHT22;20808;48.974;8.452;2023-08-30T01:15:23;12.30;99.90
34572;DHT22;20808;48.974;8.452;2023-08-30T01:15:41;12.30;99.90
34572;DHT22;20808;48.974;8.452;2023-08-30T01:16:00;12.40;99.90
34572;DHT22;20808;48.974;8.452;2023-08-30T01:16:17;12.30;99.90
34572;DHT22;20808;48.974;8.452;2023-08-30T01:16:35;12.20;99.90
34572;DHT22;20808;48.974;8.452;2023-08-30T01:16:52;12.20;99.90
34572;DHT22;20808;48.974;8.452;2023-08-30T01:17:10;12.10;99.90
34572;DHT22;20808;48.974;8.452;2023-08-30T01:17:28;12.10;99.90
34572;DHT22;20808;48.974;8.452;2023-08-30T01:17:47;12.30;99.90
34572;DHT22;20808;48.974;8.452;2023-08-30T01:18:04;12.30;99.90
34572;DHT22;20808;48.974;8.452;2023-08-30T01:18:22;12.20;99.90
34572;DHT22;20808;48.974;8.452;2023-08-30T01:18:39;12.20;99.90
34572;DHT22;20808;48.974;8.452;2023-08-30T01:18:56;12.30;99.90
34572;DHT22;20808;48.974;8.452;2023-08-30T01:19:30;12.50;99.90
34572;DHT22;20808;48.974;8.452;2023-08-30T01:19:55;12.00;99.90
34572;DHT22;20808;48.974;8.452;2023-08-30T01:20:15;12.30;99.90
34572;DHT22;20808;48.974;8.452;2023-08-30T01:20:36;12.10;99.90
34572;DHT22;20808;48.974;8.452;2023-08-30T01:20:54;12.20;99.90
34572;DHT22;20808;48.974;8.452;2023-08-30T01:21:23;12.10;99.90
34572;DHT22;20808;48.974;8.452;2023-08-30T01:21:49;12.20;99.90
34572;DHT22;20808;48.974;8.452;2023-08-30T01:22:16;12.20;99.90
34572;DHT22;20808;48.974;8.452;2023-08-30T01:22:42;12.40;99.90
34572;DHT22;20808;48.974;8.452;2023-08-30T01:23:03;12.20;99.90
34572;DHT22;20808;48.974;8.452;2023-08-30T01:23:29;12.50;99.90
34572;DHT22;20808;48.974;8.452;2023-08-30T01:23:59;12.30;99.90
34572;DHT22;20808;48.974;8.452;2023-08-30T01:24:23;12.30;99.90
34572;DHT22;20808;48.974;8.452;2023-08-30T01:24:44;12.30;99.90
34572;DHT22;20808;48.974;8.452;2023-08-30T01:25:15;12.30;99.90
34572;DHT22;20808;48.974;8.452;2023-08-30T01:25:42;12.40;99.90
34572;DHT22;20808;48.974;8.452;2023-08-30T01:26:06;12.50;99.90
34572;DHT22;20808;48.974;8.452;2023-08-30T01:26:29;12.50;99.90
34572;DHT22;20808;48.974;8.452;2023-08-30T01:27:05;12.10;99.90
34572;DHT22;20808;48.974;8.452;2023-08-30T01:27:24;12.30;99.90
34572;DHT22;20808;48.974;8.452;2023-08-30T01:27:41;12.50;99.90
34572;DHT22;20808;48.974;8.452;2023-08-30T01:27:58;12.10;99.90
34572;DHT22;20808;48.974;8.452;2023-08-30T01:28:17;12.40;99.90
34572;DHT22;20808;48.974;8.452;2023-08-30T01:28:35;12.30;99.90
34572;DHT22;20808;48.974;8.452;2023-08-30T01:28:53;12.20;99.90
34572;DHT22;20808;48.974;8.452;2023-08-30T01:29:11;12.40;99.90
34572;DHT22;20808;48.974;8.452;2023-08-30T01:29:29;12.40;99.90
34572;DHT22;20808;48.974;8.452;2023-08-30T01:29:46;12.30;99.90
34572;DHT22;20808;48.974;8.452;2023-08-30T01:30:02;12.10;99.90
34572;DHT22;20808;48.974;8.452;2023-08-30T01:30:22;12.10;99.90
34572;DHT22;20808;48.974;8.452;2023-08-30T01:30:41;12.40;99.90
34572;DHT22;20808;48.974;8.452;2023-08-30T01:30:59;12.30;99.90
34572;DHT22;20808;48.974;8.452;2023-08-30T01:31:16;12.20;99.90
34572;DHT22;20808;48.974;8.452;2023-08-30T01:31:34;12.30;99.90
34572;DHT22;20808;48.974;8.452;2023-08-30T01:31:51;12.50;99.90
34572;DHT22;20808;48.974;8.452;2023-08-30T01:32:08;12.00;99.90
34572;DHT22;20808;48.974;8.452;2023-08-30T01:32:25;12.30;99.90
34572;DHT22;20808;48.974;8.452;2023-08-30T01:32:41;12.10;99.90
34572;DHT22;20808;48.974;8.452;2023-08-30T01:32:59;12.40;99.90
34572;DHT22;20808;48.974;8.452;2023-08-30T01:33:16;12.10;99.90
34572;DHT22;20808;48.974;8.452;2023-08-30T01:33:34;12.40;99.90
34572;DHT22;20808;48.974;8.452;2023-08-30T01:33:52;12.20;99.90
34572;DHT22;20808;48.974;8.452;2023-08-30T01:34:08;12.20;99.90
34572;DHT22;20808;48.974;8.452;2023-08-30T01:34:24;12.30;99.90
34572;DHT22;20808;48.974;8.452;2023-08-30T01:34:42;12.00;99.90
34572;DHT22;20808;48.974;8.452;2023-08-30T01:34:58;12.20;99.90
34572;DHT22;20808;48.974;8.452;2023-08-30T01:35:14;12.20;99.90
34572;DHT22;20808;48.974;8.452;2023-08-30T01:35:33;12.30;99.90
34572;DHT22;20808;48.974;8.452;2023-08-30T01:35:51;12.40;99.90
34572;DHT22;20808;48.974;8.452;2023-08-30T01:36:07;12.10;99.90
34572;DHT22;20808;48.974;8.452;2023-08-30T01:36:24;12.30;99.90
34572;DHT22;20808;48.974;8.452;2023-08-30T01:36:41;12.30;99.90
34572;DHT22;20808;48.974;8.452;2023-08-30T01:36:58;12.40;99.90
34572;DHT22;20808;48.974;8.452;2023-08-30T01:37:15;12.20;99.90
34572;DHT22;20808;48.974;8.452;2023-08-30T01:37:32;12.30;99.90
34572;DHT22;20808;48.974;8.452;2023-08-30T01:37:49;12.10;99.90
34572;DHT22;20808;48.974;8.452;2023-08-30T01:38:06;12.20;99.90
34572;DHT22;20808;48.974;8.452;2023-08-30T01:38:23;12.00;99.90
34572;DHT22;20808;48.974;8.452;2023-08-30T01:38:39;12.30;99.90
34572;DHT22;20808;48.974;8.452;2023-08-30T01:38:56;12.00;99.90
34572;DHT22;20808;48.974;8.452;2023-08-30T01:39:13;12.20;99.90
34572;DHT22;20808;48.974;8.452;2023-08-30T01:39:30;12.10;99.90
34572;DHT22;20808;48.974;8.452;2023-08-30T01:39:47;12.20;99.90
34572;DHT22;20808;48.974;8.452;2023-08-30T01:40:04;12.30;99.90
34572;DHT22;20808;48.974;8.452;2023-08-30T01:40:21;12.30;99.90
34572;DHT22;20808;48.974;8.452;2023-08-30T01:40:41;12.50;99.90
34572;DHT22;20808;48.974;8.452;2023-08-30T01:40:58;12.30;99.90
34572;DHT22;20808;48.974;8.452;2023-08-30T01:41:15;12.40;99.90
34572;DHT22;20808;48.974;8.452;2023-08-30T01:41:32;12.20;99.90
34572;DHT22;20808;48.974;8.452;2023-08-30T01:41:51;12.20;99.90
34572;DHT22;20808;48.974;8.452;2023-08-30T01:42:09;12.40;99.90
34572;DHT22;20808;48.974;8.452;2023-08-30T01:42:26;12.40;99.90
34572;DHT22;20808;48.974;8.452;2023-08-30T01:42:43;12.30;99.90
34572;DHT22;20808;48.974;8.452;2023-08-30T01:43:00;12.20;99.90
34572;DHT22;20808;48.974;8.452;2023-08-30T01:43:18;12.30;99.90
34572;DHT22;20808;48.974;8.452;2023-08-30T01:43:36;12.40;99.90
34572;DHT22;20808;48.974;8.452;2023-08-30T01:43:53;12.30;99.90
34572;DHT22;20808;48.974;8.452;2023-08-30T01:44:10;12.30;99.90
34572;DHT22;20808;48.974;8.452;2023-08-30T01:44:27;12.40;99.90
34572;DHT22;20808;48.974;8.452;2023-08-30T01:44:43;12.40;99.90
34572;DHT22;20808;48.974;8.452;2023-08-30T01:45:01;12.50;99.90
34572;DHT22;20808;48.974;8.452;2023-08-30T01:45:20;12.10;99.90
34572;DHT22;20808;48.974;8.452;2023-08-30T01:45:41;12.30;99.90
34572;DHT22;20808;48.974;8.452;2023-08-30T01:45:57;12.30;99.90
34572;DHT22;20808;48.974;8.452;2023-08-30T01:46:16;12.20;99.90
34572;DHT22;20808;48.974;8.452;2023-08-30T01:46:33;12.30;99.90
34572;DHT22;20808;48.974;8.452;2023-08-30T01:46:50;12.10;99.90
34572;DHT22;20808;48.974;8.452;2023-08-30T01:47:06;12.40;99.90
34572;DHT22;20808;48.974;8.452;2023-08-30T01:47:24;12.40;99.90
34572;DHT22;20808;48.974;8.452;2023-08-30T01:47:42;12.20;99.90
34572;DHT22;20808;48.974;8.452;2023-08-30T01:47:59;12.20;99.90
34572;DHT22;20808;48.974;8.452;2023-08-30T01:48:16;12.30;99.90
34572;DHT22;20808;48.974;8.452;2023-08-30T01:48:34;12.20;99.90
34572;DHT22;20808;48.974;8.452;2023-08-30T01:48:51;12.30;99.90